createdAt,value
2019-04-14T00:02:08.080Z,0
2019-04-14T00:07:08.625Z,0
2019-04-14T00:12:12.395Z,0
2019-04-14T00:17:08.690Z,0
2019-04-14T00:22:09.351Z,0
2019-04-14T00:27:08.873Z,0
2019-04-14T00:32:09.422Z,0
2019-04-14T00:37:09.788Z,0
2019-04-14T00:41:09.309Z,0
2019-04-14T00:46:08.607Z,0
2019-04-14T00:51:09.049Z,0
2019-04-14T00:56:08.682Z,0
2019-04-14T01:01:09.029Z,0
2019-04-14T01:06:10.081Z,0
2019-04-14T01:11:10.227Z,0
2019-04-14T01:15:11.404Z,0
2019-04-14T01:16:24.939Z,0
2019-04-14T01:20:09.989Z,0
2019-04-14T01:25:08.523Z,0
2019-04-14T01:30:11.050Z,0
2019-04-14T01:35:09.724Z,0
2019-04-14T01:40:09.807Z,0
2019-04-14T01:45:10.297Z,0
2019-04-14T01:49:07.290Z,0
2019-04-14T01:54:06.710Z,0
2019-04-14T01:59:06.493Z,0
2019-04-14T02:04:09.427Z,0
2019-04-14T02:09:09.677Z,0
2019-04-14T02:14:08.537Z,0
2019-04-14T02:19:09.171Z,0
2019-04-14T02:23:06.673Z,0
2019-04-14T02:28:06.913Z,0
2019-04-14T02:33:38.770Z,0
2019-04-14T02:45:26.088Z,0
2019-04-14T02:48:43.989Z,0
2019-04-14T02:55:02.721Z,0
2019-04-14T03:02:29.031Z,0
2019-04-14T03:09:36.141Z,0
2019-04-14T03:14:14.947Z,0
2019-04-14T03:35:03.159Z,0
2019-04-14T03:56:16.738Z,1.67
2019-04-14T04:00:09.587Z,5
2019-04-14T04:05:08.429Z,9.17
2019-04-14T04:10:07.208Z,15.83
2019-04-14T04:15:10.203Z,26.67
2019-04-14T04:20:06.709Z,52.5
2019-04-14T04:25:11.570Z,90
2019-04-14T04:30:10.183Z,126.67
2019-04-14T04:35:08.905Z,168.33
2019-04-14T04:39:06.719Z,276.67
2019-04-14T04:44:07.109Z,397.5
2019-04-14T04:49:11.407Z,804.17
2019-04-14T04:54:06.223Z,1276.67
2019-04-14T04:59:07.535Z,1833.33
2019-04-14T05:04:09.321Z,2269.17
2019-04-14T05:08:07.241Z,2987.5
2019-04-14T05:14:09.079Z,3346.67
2019-04-14T05:18:07.102Z,3464.17
2019-04-14T05:23:07.788Z,3918.33
2019-04-14T05:28:06.943Z,4646.67
2019-04-14T05:33:07.443Z,5211.67
2019-04-14T05:38:06.273Z,5160.83
2019-04-14T05:43:06.707Z,5039.17
2019-04-14T05:48:07.366Z,4728.33
2019-04-14T05:52:08.374Z,4893.33
2019-04-14T05:57:08.704Z,4635
2019-04-14T06:02:07.251Z,4025.83
2019-04-14T06:07:06.564Z,3445.83
2019-04-14T06:12:06.062Z,3919.17
2019-04-14T06:16:08.215Z,4076.67
2019-04-14T06:17:06.289Z,4076.67
2019-04-14T06:21:07.762Z,3191.67
2019-04-14T06:26:07.830Z,3786.67
2019-04-14T06:31:09.847Z,4124.17
2019-04-14T06:36:07.028Z,4304.17
2019-04-14T06:41:06.871Z,3652.5
2019-04-14T06:46:05.992Z,3071.67
2019-04-14T06:51:06.176Z,3005
2019-04-14T06:55:07.472Z,4286.67
2019-04-14T07:00:08.664Z,4223.33
2019-04-14T07:05:06.196Z,3730.83
2019-04-14T07:10:06.717Z,3799.17
2019-04-14T07:15:08.726Z,3771.67
2019-04-14T07:19:08.059Z,3070
2019-04-14T07:20:06.071Z,3070
2019-04-14T07:24:07.527Z,3645.83
2019-04-14T07:29:06.710Z,3239.17
2019-04-14T07:34:08.011Z,3965
2019-04-14T07:39:07.564Z,5070
2019-04-14T07:44:07.763Z,4525
2019-04-14T07:49:06.241Z,5513.33
2019-04-14T07:54:07.254Z,5089.17
2019-04-14T07:58:07.718Z,3745.83
2019-04-14T08:03:07.270Z,3893.33
2019-04-14T08:08:07.584Z,4182.5
2019-04-14T08:13:07.212Z,6273.33
2019-04-14T08:18:07.099Z,5176.67
2019-04-14T08:22:08.092Z,3765
2019-04-14T08:23:07.042Z,3765
2019-04-14T08:27:07.431Z,4325
2019-04-14T08:32:07.347Z,3755.83
2019-04-14T08:37:07.548Z,4278.33
2019-04-14T08:42:07.159Z,7237.5
2019-04-14T08:47:07.121Z,7398.33
2019-04-14T08:52:07.180Z,7100.83
2019-04-14T08:56:07.717Z,6733.33
2019-04-14T08:57:07.715Z,6733.33
2019-04-14T09:01:07.531Z,8934.17
2019-04-14T09:06:07.823Z,7865.83
2019-04-14T09:11:07.438Z,7535.83
2019-04-14T09:16:07.416Z,6034.17
2019-04-14T09:21:07.676Z,6784.17
2019-04-14T09:26:07.764Z,6655.83
2019-04-14T09:30:08.959Z,7690
2019-04-14T09:35:07.740Z,7388.33
2019-04-14T09:40:07.438Z,7202.5
2019-04-14T09:45:08.823Z,6174.17
2019-04-14T09:50:06.966Z,6033.33
2019-04-14T09:55:08.297Z,7060
2019-04-14T10:04:07.200Z,8478.33
2019-04-14T10:09:08.029Z,7493.33
2019-04-14T10:14:07.259Z,5936.67
2019-04-14T10:19:07.799Z,5978.33
2019-04-14T10:24:06.958Z,7165
2019-04-14T10:29:07.100Z,6015
2019-04-14T10:34:09.797Z,6869.17
2019-04-14T10:38:06.409Z,6525
2019-04-14T10:43:06.098Z,8013.33
2019-04-14T10:48:05.960Z,9409.17
2019-04-14T10:53:06.165Z,7255.83
2019-04-14T10:58:07.343Z,8685.83
2019-04-14T11:03:07.887Z,8830.83
2019-04-14T11:07:07.359Z,8483.33
2019-04-14T11:12:07.810Z,7263.33
2019-04-14T11:17:07.135Z,8220.83
2019-04-14T11:22:07.409Z,11260.83
2019-04-14T11:27:07.679Z,9096.67
2019-04-14T11:32:07.185Z,8953.33
2019-04-14T11:36:07.022Z,9180
2019-04-14T11:37:06.934Z,9180
2019-04-14T11:41:06.715Z,11867.5
2019-04-14T11:46:06.537Z,10230
2019-04-14T11:51:05.878Z,11847.5
2019-04-14T11:56:06.180Z,9397.5
2019-04-14T12:01:07.173Z,6461.67
2019-04-14T12:06:08.494Z,6238.33
2019-04-14T12:11:07.106Z,10663.33
2019-04-14T12:15:07.937Z,9550.83
2019-04-14T12:20:07.197Z,9140
2019-04-14T12:25:06.703Z,13566.67
2019-04-14T12:30:09.116Z,12656.67
2019-04-14T12:35:06.885Z,14289.17
2019-04-14T12:40:07.341Z,17097.5
2019-04-14T12:44:08.399Z,18003.33
2019-04-14T12:49:07.391Z,19784.17
2019-04-14T12:54:06.891Z,14122.5
2019-04-14T12:59:06.706Z,14542.5
2019-04-14T13:04:07.684Z,13056.67
2019-04-14T13:09:07.362Z,9013.33
2019-04-14T13:14:07.625Z,12695.83
2019-04-14T13:19:06.127Z,14870
2019-04-14T13:24:07.386Z,15713.33
2019-04-14T13:28:07.499Z,13250
2019-04-14T13:33:07.030Z,16295
2019-04-14T13:38:06.255Z,15627.5
2019-04-14T13:43:07.666Z,13253.33
2019-04-14T13:48:06.755Z,7400
2019-04-14T13:52:07.238Z,7636.67
2019-04-14T13:53:07.199Z,7636.67
2019-04-14T13:57:07.289Z,8214.17
2019-04-14T14:02:07.277Z,7433.33
2019-04-14T14:07:06.538Z,12275
2019-04-14T14:12:07.181Z,7677.5
2019-04-14T14:17:06.143Z,7879.17
2019-04-14T14:22:07.448Z,12187.5
2019-04-14T14:26:07.639Z,13890.83
2019-04-14T14:27:05.973Z,13890.83
2019-04-14T14:31:07.232Z,13580.83
2019-04-14T14:36:07.422Z,13332.5
2019-04-14T14:41:07.479Z,13064.17
2019-04-14T14:46:06.368Z,13702.5
2019-04-14T14:51:07.638Z,11774.17
2019-04-14T14:56:06.853Z,13345
2019-04-14T15:01:07.229Z,12296.67
2019-04-14T15:05:05.946Z,11115.83
2019-04-14T15:10:09.190Z,10601.67
2019-04-14T15:15:08.443Z,10402.5
2019-04-14T15:20:09.587Z,10112.5
2019-04-14T15:25:06.850Z,9405
2019-04-14T15:30:09.307Z,9077.5
2019-04-14T15:35:06.472Z,8739.17
2019-04-14T15:40:07.581Z,8895
2019-04-14T15:44:07.046Z,7782.5
2019-04-14T15:49:08.570Z,7747.5
2019-04-14T15:54:07.164Z,12435.83
2019-04-14T15:59:08.475Z,10096.67
2019-04-14T16:04:06.356Z,9995.83
2019-04-14T16:09:08.434Z,10045.83
2019-04-14T16:13:09.582Z,8601.67
2019-04-14T16:14:06.145Z,8601.67
2019-04-14T16:18:10.098Z,7786.67
2019-04-14T16:23:07.568Z,6254.17
2019-04-14T16:28:07.923Z,4860.83
2019-04-14T16:33:07.263Z,4337.5
2019-04-14T16:38:07.940Z,4226.67
2019-04-14T16:43:07.816Z,4670
2019-04-14T16:48:08.109Z,4719.17
2019-04-14T16:52:08.701Z,5548.33
2019-04-14T16:57:07.042Z,5624.17
2019-04-14T17:02:12.617Z,4879.17
2019-04-14T17:07:10.307Z,3885.83
2019-04-14T17:12:06.198Z,3386.67
2019-04-14T17:17:08.109Z,3176.67
2019-04-14T17:22:06.580Z,2768.33
2019-04-14T17:26:08.474Z,2225
2019-04-14T17:31:06.325Z,1840.83
2019-04-14T17:36:07.180Z,1508.33
2019-04-14T17:41:07.995Z,981.67
2019-04-14T17:46:07.548Z,613.33
2019-04-14T17:51:07.980Z,385.83
2019-04-14T17:56:06.386Z,264.17
2019-04-14T18:00:09.586Z,179.17
2019-04-14T18:05:08.543Z,124.17
2019-04-14T18:10:08.322Z,76.67
2019-04-14T18:15:12.956Z,39.17
2019-04-14T18:20:08.113Z,16.67
2019-04-14T18:25:06.997Z,8.33
2019-04-14T18:29:08.552Z,3.33
2019-04-14T18:34:06.948Z,0.83
2019-04-14T18:39:07.809Z,0
2019-04-14T18:44:08.564Z,0
2019-04-14T18:49:08.994Z,0
2019-04-14T18:54:08.157Z,0
2019-04-14T18:59:08.547Z,0
2019-04-14T19:04:08.246Z,0
2019-04-14T19:08:07.781Z,0
2019-04-14T19:13:10.781Z,0
2019-04-14T19:18:07.979Z,0
2019-04-14T19:23:09.548Z,0
2019-04-14T19:28:07.854Z,0
2019-04-14T19:33:08.281Z,0
2019-04-14T19:38:06.496Z,0
2019-04-14T19:42:07.773Z,0
2019-04-14T19:43:08.169Z,0
2019-04-14T19:47:09.191Z,0
2019-04-14T19:52:08.096Z,0
2019-04-14T19:57:09.339Z,0
2019-04-14T20:02:08.279Z,0
2019-04-14T20:07:08.353Z,0
2019-04-14T20:12:09.894Z,0
2019-04-14T20:17:07.398Z,0
2019-04-14T20:22:07.558Z,0
2019-04-14T20:26:07.036Z,0
2019-04-14T20:31:07.442Z,0
2019-04-14T20:36:07.666Z,0
2019-04-14T20:41:07.161Z,0
2019-04-14T20:46:07.050Z,0
2019-04-14T20:51:07.309Z,0
2019-04-14T20:56:07.563Z,0
2019-04-14T21:00:09.695Z,0
2019-04-14T21:01:07.669Z,0
2019-04-14T21:05:07.048Z,0
2019-04-14T21:10:07.551Z,0
2019-04-14T21:15:08.927Z,0
2019-04-14T21:20:06.986Z,0
2019-04-14T21:25:07.223Z,0
2019-04-14T21:30:08.913Z,0
2019-04-14T21:34:07.101Z,0
2019-04-14T21:35:07.062Z,0
2019-04-14T21:39:06.953Z,0
2019-04-14T21:44:06.069Z,0
2019-04-14T21:49:06.187Z,0
2019-04-14T21:54:06.440Z,0
2019-04-14T21:59:06.709Z,0
2019-04-14T22:04:07.703Z,0
2019-04-14T22:08:06.160Z,0
2019-04-14T22:13:06.590Z,0
2019-04-14T22:18:07.455Z,0
2019-04-14T22:23:06.709Z,0
2019-04-14T22:28:06.887Z,0
2019-04-14T22:33:06.915Z,0
2019-04-14T22:38:07.091Z,0
2019-04-14T22:43:06.747Z,0
2019-04-14T22:47:06.726Z,0
2019-04-14T22:52:06.986Z,0
2019-04-14T22:57:07.332Z,0
2019-04-14T23:02:07.313Z,0
2019-04-14T23:07:06.624Z,0
2019-04-14T23:12:07.325Z,0
2019-04-14T23:17:07.214Z,0
2019-04-14T23:22:07.462Z,0
2019-04-14T23:26:07.028Z,0
2019-04-14T23:27:07.027Z,0
2019-04-14T23:31:07.462Z,0
2019-04-14T23:36:06.789Z,0
2019-04-14T23:41:07.467Z,0
2019-04-14T23:46:06.639Z,0
2019-04-14T23:51:06.857Z,0
2019-04-14T23:56:07.087Z,0
